sensor_id;sensor_type;location;lat;lon;timestamp;temperature;humidity
4699;DHT22;33708;49.466;11.176;2023-07-29T00:01:44;17.90;99.90
4699;DHT22;33708;49.466;11.176;2023-07-29T00:04:11;17.80;99.90
4699;DHT22;33708;49.466;11.176;2023-07-29T00:06:37;17.80;99.90
4699;DHT22;33708;49.466;11.176;2023-07-29T00:09:02;17.80;99.90
4699;DHT22;33708;49.466;11.176;2023-07-29T00:11:28;17.60;99.90
4699;DHT22;33708;49.466;11.176;2023-07-29T00:13:54;17.50;99.90
4699;DHT22;33708;49.466;11.176;2023-07-29T00:16:20;17.50;99.90
4699;DHT22;33708;49.466;11.176;2023-07-29T00:18:49;17.50;99.90
4699;DHT22;33708;49.466;11.176;2023-07-29T00:21:14;17.40;99.90
4699;DHT22;33708;49.466;11.176;2023-07-29T00:23:43;17.40;99.90
4699;DHT22;33708;49.466;11.176;2023-07-29T00:26:08;17.40;99.90
4699;DHT22;33708;49.466;11.176;2023-07-29T00:28:34;17.40;99.90
4699;DHT22;33708;49.466;11.176;2023-07-29T00:30:59;17.50;99.90
4699;DHT22;33708;49.466;11.176;2023-07-29T00:33:25;17.50;99.90
4699;DHT22;33708;49.466;11.176;2023-07-29T00:35:51;17.50;99.90
4699;DHT22;33708;49.466;11.176;2023-07-29T00:38:16;17.60;99.90
4699;DHT22;33708;49.466;11.176;2023-07-29T00:40:42;17.60;99.90
4699;DHT22;33708;49.466;11.176;2023-07-29T00:43:08;17.70;99.90
4699;DHT22;33708;49.466;11.176;2023-07-29T00:45:34;17.70;99.90
4699;DHT22;33708;49.466;11.176;2023-07-29T00:48:01;17.70;99.90
4699;DHT22;33708;49.466;11.176;2023-07-29T00:50:27;17.70;99.90
4699;DHT22;33708;49.466;11.176;2023-07-29T00:52:54;17.70;99.90
4699;DHT22;33708;49.466;11.176;2023-07-29T00:55:20;17.70;99.90
4699;DHT22;33708;49.466;11.176;2023-07-29T00:57:46;17.70;99.90
4699;DHT22;33708;49.466;11.176;2023-07-29T01:00:24;17.80;99.90
4699;DHT22;33708;49.466;11.176;2023-07-29T01:02:51;17.80;99.90
4699;DHT22;33708;49.466;11.176;2023-07-29T01:05:20;17.70;99.90
4699;DHT22;33708;49.466;11.176;2023-07-29T01:08:05;17.60;99.90
4699;DHT22;33708;49.466;11.176;2023-07-29T01:13:48;17.60;99.90
4699;DHT22;33708;49.466;11.176;2023-07-29T01:16:29;17.50;99.90
4699;DHT22;33708;49.466;11.176;2023-07-29T01:18:57;17.50;99.90
4699;DHT22;33708;49.466;11.176;2023-07-29T01:21:26;17.30;99.90
4699;DHT22;33708;49.466;11.176;2023-07-29T01:23:52;17.30;99.90
4699;DHT22;33708;49.466;11.176;2023-07-29T01:26:18;17.30;99.90
4699;DHT22;33708;49.466;11.176;2023-07-29T01:28:44;17.20;99.90
4699;DHT22;33708;49.466;11.176;2023-07-29T01:31:18;17.20;99.90
4699;DHT22;33708;49.466;11.176;2023-07-29T01:33:53;17.20;99.90
4699;DHT22;33708;49.466;11.176;2023-07-29T01:36:22;17.10;99.90
4699;DHT22;33708;49.466;11.176;2023-07-29T01:38:52;17.10;99.90
4699;DHT22;33708;49.466;11.176;2023-07-29T01:41:20;17.00;99.90
4699;DHT22;33708;49.466;11.176;2023-07-29T01:43:46;17.00;99.90
4699;DHT22;33708;49.466;11.176;2023-07-29T01:46:13;16.90;99.90
4699;DHT22;33708;49.466;11.176;2023-07-29T01:48:39;16.80;99.90
4699;DHT22;33708;49.466;11.176;2023-07-29T01:51:06;16.80;99.90
4699;DHT22;33708;49.466;11.176;2023-07-29T01:53:32;16.80;99.90
4699;DHT22;33708;49.466;11.176;2023-07-29T01:55:57;16.70;99.90
4699;DHT22;33708;49.466;11.176;2023-07-29T01:58:23;16.70;99.90
4699;DHT22;33708;49.466;11.176;2023-07-29T02:00:49;16.60;99.90
4699;DHT22;33708;49.466;11.176;2023-07-29T02:03:15;16.60;99.90
4699;DHT22;33708;49.466;11.176;2023-07-29T02:05:40;16.60;99.90
4699;DHT22;33708;49.466;11.176;2023-07-29T02:08:07;16.50;99.90
4699;DHT22;33708;49.466;11.176;2023-07-29T02:10:33;16.40;99.90
4699;DHT22;33708;49.466;11.176;2023-07-29T02:12:58;16.30;99.90
4699;DHT22;33708;49.466;11.176;2023-07-29T02:15:24;16.50;99.90
4699;DHT22;33708;49.466;11.176;2023-07-29T02:17:50;16.30;99.90
4699;DHT22;33708;49.466;11.176;2023-07-29T02:20:17;16.20;99.90
4699;DHT22;33708;49.466;11.176;2023-07-29T02:22:42;16.20;99.90
4699;DHT22;33708;49.466;11.176;2023-07-29T02:25:08;16.20;99.90
4699;DHT22;33708;49.466;11.176;2023-07-29T02:27:35;16.10;99.90
4699;DHT22;33708;49.466;11.176;2023-07-29T02:30:01;16.10;99.90
4699;DHT22;33708;49.466;11.176;2023-07-29T02:32:27;16.10;99.90
4699;DHT22;33708;49.466;11.176;2023-07-29T02:34:52;16.10;99.90
4699;DHT22;33708;49.466;11.176;2023-07-29T02:37:18;16.00;99.90
4699;DHT22;33708;49.466;11.176;2023-07-29T02:39:43;16.00;99.90
4699;DHT22;33708;49.466;11.176;2023-07-29T02:42:09;15.90;99.90
4699;DHT22;33708;49.466;11.176;2023-07-29T02:44:34;15.90;99.90
4699;DHT22;33708;49.466;11.176;2023-07-29T02:47:00;15.90;99.90
4699;DHT22;33708;49.466;11.176;2023-07-29T02:49:26;15.80;99.90
4699;DHT22;33708;49.466;11.176;2023-07-29T02:51:51;15.80;99.90
4699;DHT22;33708;49.466;11.176;2023-07-29T02:54:17;15.80;99.90
4699;DHT22;33708;49.466;11.176;2023-07-29T02:56:42;15.80;99.90
4699;DHT22;33708;49.466;11.176;2023-07-29T02:59:08;15.80;99.90
4699;DHT22;33708;49.466;11.176;2023-07-29T03:01:34;15.70;99.90
4699;DHT22;33708;49.466;11.176;2023-07-29T03:03:59;15.60;99.90
4699;DHT22;33708;49.466;11.176;2023-07-29T03:06:25;15.60;99.90
4699;DHT22;33708;49.466;11.176;2023-07-29T03:08:51;15.60;99.90
4699;DHT22;33708;49.466;11.176;2023-07-29T03:11:16;15.60;99.90
4699;DHT22;33708;49.466;11.176;2023-07-29T03:13:43;15.60;99.90
4699;DHT22;33708;49.466;11.176;2023-07-29T03:16:11;15.60;99.90
4699;DHT22;33708;49.466;11.176;2023-07-29T03:18:37;15.50;99.90
4699;DHT22;33708;49.466;11.176;2023-07-29T03:21:03;15.50;99.90
4699;DHT22;33708;49.466;11.176;2023-07-29T03:23:30;15.50;99.90
4699;DHT22;33708;49.466;11.176;2023-07-29T03:25:57;15.50;99.90
4699;DHT22;33708;49.466;11.176;2023-07-29T03:28:33;15.50;99.90
4699;DHT22;33708;49.466;11.176;2023-07-29T03:30:59;15.60;99.90
4699;DHT22;33708;49.466;11.176;2023-07-29T03:33:25;15.50;99.90
4699;DHT22;33708;49.466;11.176;2023-07-29T03:35:52;15.50;99.90
4699;DHT22;33708;49.466;11.176;2023-07-29T03:38:18;15.50;99.90
4699;DHT22;33708;49.466;11.176;2023-07-29T03:40:44;15.50;99.90
4699;DHT22;33708;49.466;11.176;2023-07-29T03:43:10;15.60;99.90
4699;DHT22;33708;49.466;11.176;2023-07-29T03:45:36;15.60;99.90
4699;DHT22;33708;49.466;11.176;2023-07-29T03:48:02;15.60;99.90
4699;DHT22;33708;49.466;11.176;2023-07-29T03:50:29;15.60;99.90
4699;DHT22;33708;49.466;11.176;2023-07-29T03:52:55;15.60;99.90
4699;DHT22;33708;49.466;11.176;2023-07-29T03:55:21;15.60;99.90
4699;DHT22;33708;49.466;11.176;2023-07-29T03:57:47;15.70;99.90
4699;DHT22;33708;49.466;11.176;2023-07-29T04:00:12;15.80;99.90
4699;DHT22;33708;49.466;11.176;2023-07-29T04:02:38;15.90;99.90
4699;DHT22;33708;49.466;11.176;2023-07-29T04:05:04;16.10;99.90
4699;DHT22;33708;49.466;11.176;2023-07-29T04:07:30;16.20;99.90
4699;DHT22;33708;49.466;11.176;2023-07-29T04:09:56;16.50;99.90
4699;DHT22;33708;49.466;11.176;2023-07-29T04:12:22;16.80;99.90
4699;DHT22;33708;49.466;11.176;2023-07-29T04:14:48;17.10;99.90
4699;DHT22;33708;49.466;11.176;2023-07-29T04:17:14;19.50;99.90
4699;DHT22;33708;49.466;11.176;2023-07-29T04:19:39;20.50;99.90
4699;DHT22;33708;49.466;11.176;2023-07-29T04:22:05;21.90;99.90
4699;DHT22;33708;49.466;11.176;2023-07-29T04:24:31;22.30;99.90
4699;DHT22;33708;49.466;11.176;2023-07-29T04:26:56;23.00;99.90
4699;DHT22;33708;49.466;11.176;2023-07-29T04:29:22;24.20;99.90
4699;DHT22;33708;49.466;11.176;2023-07-29T04:31:50;25.10;99.90
4699;DHT22;33708;49.466;11.176;2023-07-29T04:34:20;25.10;99.90
4699;DHT22;33708;49.466;11.176;2023-07-29T04:36:46;25.80;93.10
4699;DHT22;33708;49.466;11.176;2023-07-29T04:39:12;27.30;82.70
4699;DHT22;33708;49.466;11.176;2023-07-29T04:41:37;28.00;60.90
4699;DHT22;33708;49.466;11.176;2023-07-29T04:44:03;28.60;46.80
4699;DHT22;33708;49.466;11.176;2023-07-29T04:46:29;28.90;31.10
4699;DHT22;33708;49.466;11.176;2023-07-29T04:48:54;28.80;21.50
4699;DHT22;33708;49.466;11.176;2023-07-29T04:51:20;27.70;12.50
4699;DHT22;33708;49.466;11.176;2023-07-29T04:53:46;24.50;13.90
4699;DHT22;33708;49.466;11.176;2023-07-29T04:56:11;26.60;23.70
4699;DHT22;33708;49.466;11.176;2023-07-29T04:58:37;28.00;18.30
4699;DHT22;33708;49.466;11.176;2023-07-29T05:01:03;30.40;9.60
4699;DHT22;33708;49.466;11.176;2023-07-29T05:03:29;30.80;1.00
4699;DHT22;33708;49.466;11.176;2023-07-29T05:05:55;31.90;99.90
4699;DHT22;33708;49.466;11.176;2023-07-29T05:08:21;30.40;99.90
4699;DHT22;33708;49.466;11.176;2023-07-29T05:10:51;28.90;1.00
4699;DHT22;33708;49.466;11.176;2023-07-29T05:13:17;28.10;1.00
4699;DHT22;33708;49.466;11.176;2023-07-29T05:15:43;26.30;1.00
4699;DHT22;33708;49.466;11.176;2023-07-29T05:18:08;24.70;1.00
4699;DHT22;33708;49.466;11.176;2023-07-29T05:20:34;23.10;1.00
4699;DHT22;33708;49.466;11.176;2023-07-29T05:22:59;23.60;7.80
4699;DHT22;33708;49.466;11.176;2023-07-29T05:25:26;24.00;7.70
4699;DHT22;33708;49.466;11.176;2023-07-29T05:27:52;23.20;5.90
4699;DHT22;33708;49.466;11.176;2023-07-29T05:30:18;22.90;13.70
4699;DHT22;33708;49.466;11.176;2023-07-29T05:32:43;22.60;20.20
4699;DHT22;33708;49.466;11.176;2023-07-29T05:35:09;22.80;25.00
4699;DHT22;33708;49.466;11.176;2023-07-29T05:37:38;22.70;24.60
4699;DHT22;33708;49.466;11.176;2023-07-29T05:40:05;22.50;24.90
4699;DHT22;33708;49.466;11.176;2023-07-29T05:42:32;22.40;28.80
4699;DHT22;33708;49.466;11.176;2023-07-29T05:44:58;22.40;31.20
4699;DHT22;33708;49.466;11.176;2023-07-29T05:47:23;22.00;30.00
4699;DHT22;33708;49.466;11.176;2023-07-29T05:49:49;21.40;38.00
4699;DHT22;33708;49.466;11.176;2023-07-29T05:52:15;21.40;45.20
4699;DHT22;33708;49.466;11.176;2023-07-29T05:54:40;21.30;51.50
4699;DHT22;33708;49.466;11.176;2023-07-29T05:57:11;21.10;56.20
4699;DHT22;33708;49.466;11.176;2023-07-29T05:59:37;21.30;63.40
4699;DHT22;33708;49.466;11.176;2023-07-29T06:02:02;21.30;61.60
4699;DHT22;33708;49.466;11.176;2023-07-29T06:04:28;21.60;64.80
4699;DHT22;33708;49.466;11.176;2023-07-29T06:06:54;21.50;61.10
4699;DHT22;33708;49.466;11.176;2023-07-29T06:09:24;21.70;66.90
4699;DHT22;33708;49.466;11.176;2023-07-29T06:11:51;21.90;65.20
4699;DHT22;33708;49.466;11.176;2023-07-29T06:14:16;21.50;65.50
4699;DHT22;33708;49.466;11.176;2023-07-29T06:16:42;21.50;72.20
4699;DHT22;33708;49.466;11.176;2023-07-29T06:19:07;21.20;74.10
4699;DHT22;33708;49.466;11.176;2023-07-29T06:21:34;20.80;75.50
4699;DHT22;33708;49.466;11.176;2023-07-29T06:24:00;20.80;83.00
4699;DHT22;33708;49.466;11.176;2023-07-29T06:26:26;20.50;87.40
4699;DHT22;33708;49.466;11.176;2023-07-29T06:28:51;20.40;92.20
4699;DHT22;33708;49.466;11.176;2023-07-29T06:31:17;20.40;95.10
4699;DHT22;33708;49.466;11.176;2023-07-29T06:33:42;20.00;98.10
4699;DHT22;33708;49.466;11.176;2023-07-29T06:36:08;20.10;99.90
4699;DHT22;33708;49.466;11.176;2023-07-29T06:38:34;20.00;99.90
4699;DHT22;33708;49.466;11.176;2023-07-29T06:40:59;20.00;99.90
4699;DHT22;33708;49.466;11.176;2023-07-29T06:43:25;19.80;99.90
4699;DHT22;33708;49.466;11.176;2023-07-29T06:45:50;19.70;99.90
4699;DHT22;33708;49.466;11.176;2023-07-29T06:48:17;19.60;99.90
4699;DHT22;33708;49.466;11.176;2023-07-29T06:50:44;19.70;99.90
4699;DHT22;33708;49.466;11.176;2023-07-29T06:53:09;19.80;99.90
4699;DHT22;33708;49.466;11.176;2023-07-29T06:55:35;19.80;99.90
4699;DHT22;33708;49.466;11.176;2023-07-29T06:58:00;18.80;99.90
4699;DHT22;33708;49.466;11.176;2023-07-29T07:00:26;18.50;99.90
4699;DHT22;33708;49.466;11.176;2023-07-29T07:02:52;18.40;99.90
4699;DHT22;33708;49.466;11.176;2023-07-29T07:05:17;18.40;1.00
4699;DHT22;33708;49.466;11.176;2023-07-29T07:07:43;18.30;99.90
4699;DHT22;33708;49.466;11.176;2023-07-29T07:10:08;18.00;99.90
4699;DHT22;33708;49.466;11.176;2023-07-29T07:12:34;18.10;99.90
4699;DHT22;33708;49.466;11.176;2023-07-29T07:15:00;18.20;99.90
4699;DHT22;33708;49.466;11.176;2023-07-29T07:17:26;18.30;99.90
4699;DHT22;33708;49.466;11.176;2023-07-29T07:19:52;18.30;99.90
4699;DHT22;33708;49.466;11.176;2023-07-29T07:22:17;18.40;99.90
4699;DHT22;33708;49.466;11.176;2023-07-29T07:24:43;18.50;99.90
4699;DHT22;33708;49.466;11.176;2023-07-29T07:27:09;18.70;99.90
4699;DHT22;33708;49.466;11.176;2023-07-29T07:29:35;18.90;99.90
4699;DHT22;33708;49.466;11.176;2023-07-29T07:32:00;19.30;99.90
4699;DHT22;33708;49.466;11.176;2023-07-29T07:34:26;19.80;99.90
4699;DHT22;33708;49.466;11.176;2023-07-29T07:36:51;20.00;99.90
4699;DHT22;33708;49.466;11.176;2023-07-29T07:39:17;20.30;99.90
4699;DHT22;33708;49.466;11.176;2023-07-29T07:41:44;20.50;99.90
4699;DHT22;33708;49.466;11.176;2023-07-29T07:44:09;21.00;99.90
4699;DHT22;33708;49.466;11.176;2023-07-29T07:46:36;21.70;99.90
4699;DHT22;33708;49.466;11.176;2023-07-29T07:49:02;22.10;99.90
4699;DHT22;33708;49.466;11.176;2023-07-29T07:51:27;22.50;99.90
4699;DHT22;33708;49.466;11.176;2023-07-29T07:53:53;22.50;99.90
4699;DHT22;33708;49.466;11.176;2023-07-29T07:56:18;22.60;99.90
4699;DHT22;33708;49.466;11.176;2023-07-29T07:58:44;22.60;99.90
4699;DHT22;33708;49.466;11.176;2023-07-29T08:01:11;22.20;99.90
4699;DHT22;33708;49.466;11.176;2023-07-29T08:03:36;22.50;99.90
4699;DHT22;33708;49.466;11.176;2023-07-29T08:06:02;22.10;99.90
4699;DHT22;33708;49.466;11.176;2023-07-29T08:08:28;22.00;99.90
4699;DHT22;33708;49.466;11.176;2023-07-29T08:10:55;21.80;99.90
4699;DHT22;33708;49.466;11.176;2023-07-29T08:13:22;21.40;99.90
4699;DHT22;33708;49.466;11.176;2023-07-29T08:15:49;21.10;99.90
4699;DHT22;33708;49.466;11.176;2023-07-29T08:18:15;20.80;99.90
4699;DHT22;33708;49.466;11.176;2023-07-29T08:20:41;20.60;99.90
4699;DHT22;33708;49.466;11.176;2023-07-29T08:23:15;20.40;99.90
4699;DHT22;33708;49.466;11.176;2023-07-29T08:25:40;19.90;99.90
4699;DHT22;33708;49.466;11.176;2023-07-29T08:28:06;19.50;99.90
4699;DHT22;33708;49.466;11.176;2023-07-29T08:30:31;19.30;99.90
4699;DHT22;33708;49.466;11.176;2023-07-29T08:32:57;19.10;99.90
4699;DHT22;33708;49.466;11.176;2023-07-29T08:35:22;19.30;99.90
4699;DHT22;33708;49.466;11.176;2023-07-29T08:37:48;19.20;99.90
4699;DHT22;33708;49.466;11.176;2023-07-29T08:40:14;19.50;99.90
4699;DHT22;33708;49.466;11.176;2023-07-29T08:42:41;19.30;99.90
4699;DHT22;33708;49.466;11.176;2023-07-29T08:45:11;19.30;99.90
4699;DHT22;33708;49.466;11.176;2023-07-29T08:47:37;19.20;99.90
4699;DHT22;33708;49.466;11.176;2023-07-29T08:50:03;19.10;99.90
4699;DHT22;33708;49.466;11.176;2023-07-29T08:52:29;19.20;99.90
4699;DHT22;33708;49.466;11.176;2023-07-29T08:54:57;19.10;99.90
4699;DHT22;33708;49.466;11.176;2023-07-29T08:57:23;19.10;1.00
4699;DHT22;33708;49.466;11.176;2023-07-29T08:59:49;19.20;99.90
4699;DHT22;33708;49.466;11.176;2023-07-29T09:02:15;19.30;99.90
4699;DHT22;33708;49.466;11.176;2023-07-29T09:04:41;19.30;99.90
4699;DHT22;33708;49.466;11.176;2023-07-29T09:07:07;19.30;99.90
4699;DHT22;33708;49.466;11.176;2023-07-29T09:09:33;19.30;99.90
4699;DHT22;33708;49.466;11.176;2023-07-29T09:11:59;19.50;99.90
4699;DHT22;33708;49.466;11.176;2023-07-29T09:14:24;19.70;99.90
4699;DHT22;33708;49.466;11.176;2023-07-29T09:16:50;19.80;99.90
4699;DHT22;33708;49.466;11.176;2023-07-29T09:19:16;19.90;99.90
4699;DHT22;33708;49.466;11.176;2023-07-29T09:21:42;20.20;99.90
4699;DHT22;33708;49.466;11.176;2023-07-29T09:24:08;20.30;99.90
4699;DHT22;33708;49.466;11.176;2023-07-29T09:26:34;20.60;99.90
4699;DHT22;33708;49.466;11.176;2023-07-29T09:29:00;20.60;99.90
4699;DHT22;33708;49.466;11.176;2023-07-29T09:31:27;20.80;99.90
4699;DHT22;33708;49.466;11.176;2023-07-29T09:34:02;20.70;99.90
4699;DHT22;33708;49.466;11.176;2023-07-29T09:36:31;20.70;99.90
4699;DHT22;33708;49.466;11.176;2023-07-29T09:38:57;20.70;99.90
4699;DHT22;33708;49.466;11.176;2023-07-29T09:41:24;20.60;99.90
4699;DHT22;33708;49.466;11.176;2023-07-29T09:46:47;20.50;99.90
4699;DHT22;33708;49.466;11.176;2023-07-29T09:49:12;20.50;99.90
4699;DHT22;33708;49.466;11.176;2023-07-29T09:51:39;20.50;99.90
4699;DHT22;33708;49.466;11.176;2023-07-29T09:54:04;20.60;99.90
4699;DHT22;33708;49.466;11.176;2023-07-29T09:56:30;21.00;99.90
4699;DHT22;33708;49.466;11.176;2023-07-29T09:58:56;21.20;99.90
4699;DHT22;33708;49.466;11.176;2023-07-29T10:01:24;21.70;99.90
4699;DHT22;33708;49.466;11.176;2023-07-29T10:03:50;21.80;99.90
4699;DHT22;33708;49.466;11.176;2023-07-29T10:06:17;22.20;99.90
4699;DHT22;33708;49.466;11.176;2023-07-29T10:08:43;22.80;99.90
4699;DHT22;33708;49.466;11.176;2023-07-29T10:11:10;22.80;99.90
4699;DHT22;33708;49.466;11.176;2023-07-29T10:13:37;23.10;99.90
4699;DHT22;33708;49.466;11.176;2023-07-29T10:16:04;23.50;99.90
4699;DHT22;33708;49.466;11.176;2023-07-29T10:18:31;23.90;99.90
4699;DHT22;33708;49.466;11.176;2023-07-29T10:20:59;24.40;99.90
4699;DHT22;33708;49.466;11.176;2023-07-29T10:23:27;24.80;99.90
4699;DHT22;33708;49.466;11.176;2023-07-29T10:26:04;25.00;99.90
4699;DHT22;33708;49.466;11.176;2023-07-29T10:28:31;26.00;99.90
4699;DHT22;33708;49.466;11.176;2023-07-29T10:30:58;27.10;99.90
4699;DHT22;33708;49.466;11.176;2023-07-29T10:33:25;27.60;99.90
4699;DHT22;33708;49.466;11.176;2023-07-29T10:35:51;27.50;99.90
4699;DHT22;33708;49.466;11.176;2023-07-29T10:38:18;26.90;99.90
4699;DHT22;33708;49.466;11.176;2023-07-29T10:40:46;27.60;99.90
4699;DHT22;33708;49.466;11.176;2023-07-29T10:43:12;27.60;99.90
4699;DHT22;33708;49.466;11.176;2023-07-29T10:45:41;27.10;99.90
4699;DHT22;33708;49.466;11.176;2023-07-29T10:51:52;27.20;99.90
4699;DHT22;33708;49.466;11.176;2023-07-29T10:54:12;26.60;99.90
4699;DHT22;33708;49.466;11.176;2023-07-29T10:56:48;25.30;99.90
4699;DHT22;33708;49.466;11.176;2023-07-29T11:01:51;25.50;99.90
4699;DHT22;33708;49.466;11.176;2023-07-29T11:12:42;27.20;99.90
4699;DHT22;33708;49.466;11.176;2023-07-29T11:15:21;27.20;98.10
4699;DHT22;33708;49.466;11.176;2023-07-29T11:17:49;27.90;97.20
4699;DHT22;33708;49.466;11.176;2023-07-29T11:20:16;28.30;95.10
4699;DHT22;33708;49.466;11.176;2023-07-29T11:22:42;27.40;93.50
4699;DHT22;33708;49.466;11.176;2023-07-29T11:25:10;27.10;91.20
4699;DHT22;33708;49.466;11.176;2023-07-29T11:27:36;26.00;81.90
4699;DHT22;33708;49.466;11.176;2023-07-29T11:30:06;26.30;89.50
4699;DHT22;33708;49.466;11.176;2023-07-29T11:32:35;26.00;91.70
4699;DHT22;33708;49.466;11.176;2023-07-29T11:35:05;26.00;94.00
4699;DHT22;33708;49.466;11.176;2023-07-29T11:37:36;25.90;94.00
4699;DHT22;33708;49.466;11.176;2023-07-29T11:40:02;25.40;94.00
4699;DHT22;33708;49.466;11.176;2023-07-29T11:42:30;25.50;97.20
4699;DHT22;33708;49.466;11.176;2023-07-29T11:44:57;25.20;96.30
4699;DHT22;33708;49.466;11.176;2023-07-29T11:47:23;24.90;96.50
4699;DHT22;33708;49.466;11.176;2023-07-29T11:49:49;24.60;97.70
4699;DHT22;33708;49.466;11.176;2023-07-29T11:52:15;24.40;99.90
4699;DHT22;33708;49.466;11.176;2023-07-29T11:54:44;24.90;99.90
4699;DHT22;33708;49.466;11.176;2023-07-29T11:57:10;25.50;97.70
4699;DHT22;33708;49.466;11.176;2023-07-29T11:59:37;26.00;93.80
4699;DHT22;33708;49.466;11.176;2023-07-29T12:02:12;26.10;91.80
4699;DHT22;33708;49.466;11.176;2023-07-29T12:04:39;26.50;88.60
4699;DHT22;33708;49.466;11.176;2023-07-29T12:07:06;26.70;85.30
4699;DHT22;33708;49.466;11.176;2023-07-29T12:09:33;26.80;84.00
4699;DHT22;33708;49.466;11.176;2023-07-29T12:12:01;27.10;89.00
4699;DHT22;33708;49.466;11.176;2023-07-29T12:14:30;26.80;79.10
4699;DHT22;33708;49.466;11.176;2023-07-29T12:17:00;27.20;77.90
4699;DHT22;33708;49.466;11.176;2023-07-29T12:19:34;27.00;75.10
4699;DHT22;33708;49.466;11.176;2023-07-29T12:22:01;27.00;71.50
4699;DHT22;33708;49.466;11.176;2023-07-29T12:24:28;26.90;71.30
4699;DHT22;33708;49.466;11.176;2023-07-29T12:26:54;27.20;77.40
4699;DHT22;33708;49.466;11.176;2023-07-29T12:29:20;27.40;74.10
4699;DHT22;33708;49.466;11.176;2023-07-29T12:31:49;27.70;67.20
4699;DHT22;33708;49.466;11.176;2023-07-29T12:34:22;27.40;66.80
4699;DHT22;33708;49.466;11.176;2023-07-29T12:36:49;27.20;66.30
4699;DHT22;33708;49.466;11.176;2023-07-29T12:39:23;27.30;63.50
4699;DHT22;33708;49.466;11.176;2023-07-29T12:41:50;27.00;63.20
4699;DHT22;33708;49.466;11.176;2023-07-29T12:44:16;26.60;62.20
4699;DHT22;33708;49.466;11.176;2023-07-29T12:46:42;26.70;56.70
4699;DHT22;33708;49.466;11.176;2023-07-29T12:49:08;26.40;56.20
4699;DHT22;33708;49.466;11.176;2023-07-29T12:51:33;26.60;52.40
4699;DHT22;33708;49.466;11.176;2023-07-29T12:54:00;26.70;50.70
4699;DHT22;33708;49.466;11.176;2023-07-29T12:56:25;27.00;56.80
4699;DHT22;33708;49.466;11.176;2023-07-29T12:58:52;27.30;54.70
4699;DHT22;33708;49.466;11.176;2023-07-29T13:01:17;27.80;54.10
4699;DHT22;33708;49.466;11.176;2023-07-29T13:03:47;27.30;37.00
4699;DHT22;33708;49.466;11.176;2023-07-29T13:06:13;27.60;35.10
4699;DHT22;33708;49.466;11.176;2023-07-29T13:08:39;27.60;33.30
4699;DHT22;33708;49.466;11.176;2023-07-29T13:11:04;27.10;25.60
4699;DHT22;33708;49.466;11.176;2023-07-29T13:13:31;26.90;25.40
4699;DHT22;33708;49.466;11.176;2023-07-29T13:15:57;26.90;23.40
4699;DHT22;33708;49.466;11.176;2023-07-29T13:18:23;28.00;22.10
4699;DHT22;33708;49.466;11.176;2023-07-29T13:20:49;28.90;21.80
4699;DHT22;33708;49.466;11.176;2023-07-29T13:23:15;28.60;13.10
4699;DHT22;33708;49.466;11.176;2023-07-29T13:25:41;28.80;16.20
4699;DHT22;33708;49.466;11.176;2023-07-29T13:28:08;28.30;12.00
4699;DHT22;33708;49.466;11.176;2023-07-29T13:30:34;28.40;13.00
4699;DHT22;33708;49.466;11.176;2023-07-29T13:32:59;28.30;12.20
4699;DHT22;33708;49.466;11.176;2023-07-29T13:35:25;28.10;9.10
4699;DHT22;33708;49.466;11.176;2023-07-29T13:37:51;27.90;5.10
4699;DHT22;33708;49.466;11.176;2023-07-29T13:40:16;27.50;5.30
4699;DHT22;33708;49.466;11.176;2023-07-29T13:42:42;27.20;6.40
4699;DHT22;33708;49.466;11.176;2023-07-29T13:45:08;27.20;7.10
4699;DHT22;33708;49.466;11.176;2023-07-29T13:47:34;27.60;7.50
4699;DHT22;33708;49.466;11.176;2023-07-29T13:50:03;28.30;9.70
4699;DHT22;33708;49.466;11.176;2023-07-29T13:52:29;28.40;4.80
4699;DHT22;33708;49.466;11.176;2023-07-29T13:54:54;28.10;1.00
4699;DHT22;33708;49.466;11.176;2023-07-29T13:57:20;27.80;1.00
4699;DHT22;33708;49.466;11.176;2023-07-29T13:59:45;27.90;1.30
4699;DHT22;33708;49.466;11.176;2023-07-29T14:02:11;27.60;1.00
4699;DHT22;33708;49.466;11.176;2023-07-29T14:04:37;27.60;1.50
4699;DHT22;33708;49.466;11.176;2023-07-29T14:07:02;27.50;1.00
4699;DHT22;33708;49.466;11.176;2023-07-29T14:09:28;27.40;1.00
4699;DHT22;33708;49.466;11.176;2023-07-29T14:11:54;27.40;1.00
4699;DHT22;33708;49.466;11.176;2023-07-29T14:14:20;27.30;1.00
4699;DHT22;33708;49.466;11.176;2023-07-29T14:16:46;27.80;1.00
4699;DHT22;33708;49.466;11.176;2023-07-29T14:19:12;28.40;1.00
4699;DHT22;33708;49.466;11.176;2023-07-29T14:21:38;28.50;1.00
4699;DHT22;33708;49.466;11.176;2023-07-29T14:24:03;28.30;1.00
4699;DHT22;33708;49.466;11.176;2023-07-29T14:26:29;28.90;1.00
4699;DHT22;33708;49.466;11.176;2023-07-29T14:28:55;29.30;1.00
4699;DHT22;33708;49.466;11.176;2023-07-29T14:31:20;29.10;1.00
4699;DHT22;33708;49.466;11.176;2023-07-29T14:33:46;28.70;1.00
4699;DHT22;33708;49.466;11.176;2023-07-29T14:36:11;28.20;1.00
4699;DHT22;33708;49.466;11.176;2023-07-29T14:38:37;27.40;1.00
4699;DHT22;33708;49.466;11.176;2023-07-29T14:41:03;27.00;1.00
4699;DHT22;33708;49.466;11.176;2023-07-29T14:43:30;27.10;1.00
4699;DHT22;33708;49.466;11.176;2023-07-29T14:45:56;27.10;1.00
4699;DHT22;33708;49.466;11.176;2023-07-29T14:48:22;27.50;1.00
4699;DHT22;33708;49.466;11.176;2023-07-29T14:50:48;27.30;1.00
4699;DHT22;33708;49.466;11.176;2023-07-29T14:53:14;27.60;1.00
4699;DHT22;33708;49.466;11.176;2023-07-29T14:55:39;28.10;1.00
4699;DHT22;33708;49.466;11.176;2023-07-29T14:58:05;28.10;1.00
4699;DHT22;33708;49.466;11.176;2023-07-29T15:00:30;28.10;1.00
4699;DHT22;33708;49.466;11.176;2023-07-29T15:02:56;27.80;1.00
4699;DHT22;33708;49.466;11.176;2023-07-29T15:05:22;27.40;1.00
4699;DHT22;33708;49.466;11.176;2023-07-29T15:07:48;27.70;1.00
4699;DHT22;33708;49.466;11.176;2023-07-29T15:10:15;28.10;1.00
4699;DHT22;33708;49.466;11.176;2023-07-29T15:12:44;28.10;1.00
4699;DHT22;33708;49.466;11.176;2023-07-29T15:15:11;27.80;1.00
4699;DHT22;33708;49.466;11.176;2023-07-29T15:17:37;28.10;1.00
4699;DHT22;33708;49.466;11.176;2023-07-29T15:20:03;28.10;1.00
4699;DHT22;33708;49.466;11.176;2023-07-29T15:22:30;27.80;1.00
4699;DHT22;33708;49.466;11.176;2023-07-29T15:25:00;27.70;1.00
4699;DHT22;33708;49.466;11.176;2023-07-29T15:27:29;27.20;1.00
4699;DHT22;33708;49.466;11.176;2023-07-29T15:29:55;26.90;1.00
4699;DHT22;33708;49.466;11.176;2023-07-29T15:32:21;27.20;1.00
4699;DHT22;33708;49.466;11.176;2023-07-29T15:34:48;27.10;1.00
4699;DHT22;33708;49.466;11.176;2023-07-29T15:37:13;27.50;1.00
4699;DHT22;33708;49.466;11.176;2023-07-29T15:39:39;26.90;1.00
4699;DHT22;33708;49.466;11.176;2023-07-29T15:42:05;27.10;1.00
4699;DHT22;33708;49.466;11.176;2023-07-29T15:44:30;26.90;1.00
4699;DHT22;33708;49.466;11.176;2023-07-29T15:46:56;26.50;1.00
4699;DHT22;33708;49.466;11.176;2023-07-29T15:49:22;26.30;1.00